createdAt,value
2023-02-24T00:01:54.549Z,10.90
2023-02-24T00:04:21.884Z,10.90
2023-02-24T00:06:49.424Z,10.90
2023-02-24T00:09:20.333Z,10.80
2023-02-24T00:11:59.266Z,10.80
2023-02-24T00:14:29.283Z,10.70
2023-02-24T00:16:58.611Z,10.60
2023-02-24T00:19:29.083Z,10.70
2023-02-24T00:21:56.545Z,10.70
2023-02-24T00:24:24.085Z,10.60
2023-02-24T00:27:00.157Z,10.60
2023-02-24T00:29:29.144Z,10.50
2023-02-24T00:32:02.583Z,10.50
2023-02-24T00:34:32.139Z,10.50
2023-02-24T00:36:59.702Z,10.50
2023-02-24T00:39:32.926Z,10.50
2023-02-24T00:42:07.013Z,10.50
2023-02-24T00:44:41.271Z,10.50
2023-02-24T00:47:10.615Z,10.40
2023-02-24T00:49:43.202Z,10.40
2023-02-24T00:52:17.496Z,10.40
2023-02-24T00:54:46.553Z,10.30
2023-02-24T00:57:17.705Z,10.20
2023-02-24T00:59:48.379Z,10.20
2023-02-24T01:02:16.204Z,10.20
2023-02-24T01:04:45.639Z,10.30
2023-02-24T01:07:14.664Z,10.20
2023-02-24T01:09:44.301Z,10.20
2023-02-24T01:12:22.111Z,10.20
2023-02-24T01:14:53.152Z,10.20
2023-02-24T01:17:21.846Z,10.10
2023-02-24T01:19:50.704Z,10.10
2023-02-24T01:22:20.711Z,10.10
2023-02-24T01:24:48.986Z,10.10
2023-02-24T01:27:19.174Z,10.20
2023-02-24T01:29:47.792Z,10.20
2023-02-24T01:32:21.056Z,10.30
2023-02-24T01:34:52.305Z,10.30
2023-02-24T01:37:20.370Z,10.30
2023-02-24T01:39:48.365Z,10.30
2023-02-24T01:42:21.789Z,10.30
2023-02-24T01:44:49.134Z,10.30
2023-02-24T01:47:20.790Z,10.30
2023-02-24T01:49:52.725Z,10.30
2023-02-24T01:52:27.081Z,10.20
2023-02-24T01:54:58.073Z,10.10
2023-02-24T01:57:31.282Z,10.10
2023-02-24T02:00:23.546Z,10.10
2023-02-24T02:02:53.014Z,10.10
2023-02-24T02:05:21.300Z,10.00
2023-02-24T02:07:50.271Z,10.00
2023-02-24T02:10:18.653Z,10.00
2023-02-24T02:12:46.356Z,10.10
2023-02-24T02:15:16.929Z,10.00
2023-02-24T02:17:44.245Z,10.00
2023-02-24T02:20:22.834Z,10.00
2023-02-24T02:23:08.439Z,10.00
2023-02-24T02:25:57.415Z,10.00
2023-02-24T02:28:54.114Z,10.10
2023-02-24T02:31:56.768Z,10.10
2023-02-24T02:34:24.014Z,10.20
2023-02-24T02:37:09.642Z,10.20
2023-02-24T02:39:39.636Z,10.20
2023-02-24T02:42:15.391Z,10.10
2023-02-24T02:44:56.130Z,10.10
2023-02-24T02:47:55.138Z,10.00
2023-02-24T02:50:28.658Z,10.00
2023-02-24T02:53:03.233Z,9.90
2023-02-24T02:55:42.240Z,9.80
2023-02-24T02:58:15.564Z,9.70
2023-02-24T03:00:58.746Z,9.80
2023-02-24T03:03:28.091Z,9.80
2023-02-24T03:06:19.409Z,9.70
2023-02-24T03:09:30.558Z,9.70
2023-02-24T03:12:04.181Z,9.70
2023-02-24T03:14:37.630Z,9.70
2023-02-24T03:17:16.331Z,9.60
2023-02-24T03:19:46.329Z,9.60
2023-02-24T03:22:20.931Z,9.60
2023-02-24T03:24:48.870Z,9.60
2023-02-24T03:27:53.055Z,9.60
2023-02-24T03:30:27.710Z,9.50
2023-02-24T03:33:24.621Z,9.50
2023-02-24T03:35:52.713Z,9.60
2023-02-24T03:38:23.907Z,9.50
2023-02-24T03:40:52.478Z,9.60
2023-02-24T03:43:31.838Z,9.60
2023-02-24T03:46:03.807Z,9.70
2023-02-24T03:48:34.899Z,9.60
2023-02-24T03:51:04.213Z,9.60
2023-02-24T03:53:55.298Z,9.70
2023-02-24T03:56:41.120Z,9.60
2023-02-24T03:59:41.811Z,9.60
2023-02-24T04:02:21.293Z,9.60
2023-02-24T04:05:11.065Z,9.60
2023-02-24T04:08:05.405Z,9.60
2023-02-24T04:10:52.787Z,9.60
2023-02-24T04:13:36.974Z,9.50
2023-02-24T04:16:18.720Z,9.50
2023-02-24T04:18:50.457Z,9.50
2023-02-24T04:21:21.140Z,9.50
2023-02-24T04:23:48.848Z,9.50
2023-02-24T04:26:17.675Z,9.50
2023-02-24T04:28:48.593Z,9.60
2023-02-24T04:31:19.244Z,9.50
2023-02-24T04:33:50.547Z,9.50
2023-02-24T04:36:22.274Z,9.60
2023-02-24T04:38:50.193Z,9.50
2023-02-24T04:41:21.525Z,9.50
2023-02-24T04:43:51.430Z,9.50
2023-02-24T04:46:19.805Z,9.40
2023-02-24T04:48:47.179Z,9.40
2023-02-24T04:51:14.616Z,9.40
2023-02-24T04:53:42.064Z,9.30
2023-02-24T04:56:09.525Z,9.30
2023-02-24T04:58:38.632Z,9.20
2023-02-24T05:01:11.424Z,9.30
2023-02-24T05:03:42.424Z,9.30
2023-02-24T05:06:17.899Z,9.20
2023-02-24T05:08:45.348Z,9.20
2023-02-24T05:11:17.102Z,9.30
2023-02-24T05:13:48.232Z,9.30
2023-02-24T05:16:18.414Z,9.30
2023-02-24T05:18:45.809Z,9.30
2023-02-24T05:21:34.408Z,9.40
2023-02-24T05:24:06.942Z,9.40
2023-02-24T05:26:41.900Z,9.40
2023-02-24T05:29:11.045Z,9.40
2023-02-24T05:31:38.582Z,9.40
2023-02-24T05:34:08.238Z,9.50
2023-02-24T05:36:40.653Z,9.40
2023-02-24T05:39:12.535Z,9.50
2023-02-24T05:41:42.414Z,9.50
2023-02-24T05:44:22.705Z,9.60
2023-02-24T05:46:56.778Z,9.60
2023-02-24T05:49:29.368Z,9.70
2023-02-24T05:52:00.938Z,9.70
2023-02-24T05:54:37.711Z,9.70
2023-02-24T05:57:14.099Z,9.70
2023-02-24T05:59:42.483Z,9.80
2023-02-24T06:02:13.098Z,9.80
2023-02-24T06:04:51.502Z,9.90
2023-02-24T06:07:24.779Z,9.80
2023-02-24T06:09:56.667Z,9.90
2023-02-24T06:12:29.513Z,10.00
2023-02-24T06:14:58.321Z,10.00
2023-02-24T06:17:26.293Z,10.10
2023-02-24T06:19:54.185Z,10.10
2023-02-24T06:22:24.906Z,10.00
2023-02-24T06:24:54.616Z,10.00
2023-02-24T06:27:25.339Z,10.00
2023-02-24T06:29:54.866Z,10.00
2023-02-24T06:32:25.120Z,10.00
2023-02-24T06:34:54.111Z,10.10
2023-02-24T06:37:23.204Z,10.10
2023-02-24T06:39:50.988Z,10.20
2023-02-24T06:42:18.599Z,10.30
2023-02-24T06:44:47.344Z,10.30
2023-02-24T06:47:18.087Z,10.40
2023-02-24T06:49:45.559Z,10.40
2023-02-24T06:52:18.605Z,10.50
2023-02-24T06:54:52.415Z,10.50
2023-02-24T06:57:20.798Z,10.50
2023-02-24T06:59:48.985Z,10.50
2023-02-24T07:02:17.726Z,10.50
2023-02-24T07:04:45.171Z,10.50
2023-02-24T07:07:14.565Z,10.50
2023-02-24T07:09:42.897Z,10.60
2023-02-24T07:12:12.601Z,10.60
2023-02-24T07:14:40.682Z,10.70
2023-02-24T07:17:08.878Z,10.70
2023-02-24T07:19:36.925Z,10.80
2023-02-24T07:22:04.266Z,10.90
2023-02-24T07:24:36.424Z,11.10
2023-02-24T07:27:08.139Z,11.10
2023-02-24T07:29:36.372Z,11.30
2023-02-24T07:32:06.822Z,11.30
2023-02-24T07:34:38.706Z,11.40
2023-02-24T07:37:08.527Z,11.30
2023-02-24T07:39:38.038Z,11.40
2023-02-24T07:42:08.263Z,11.50
2023-02-24T07:44:45.790Z,11.50
2023-02-24T07:47:13.016Z,11.60
2023-02-24T07:49:41.140Z,11.70
2023-02-24T07:52:08.793Z,11.80
2023-02-24T07:54:37.077Z,11.90
2023-02-24T07:57:06.043Z,12.00
2023-02-24T07:59:37.834Z,12.10
2023-02-24T08:02:07.757Z,12.20
2023-02-24T08:04:39.796Z,12.20
2023-02-24T08:07:14.370Z,12.30
2023-02-24T08:09:45.145Z,12.40
2023-02-24T08:12:18.224Z,12.50
2023-02-24T08:14:51.173Z,12.40
2023-02-24T08:17:26.524Z,12.30
2023-02-24T08:20:16.427Z,12.30
2023-02-24T08:22:47.277Z,12.20
2023-02-24T08:25:19.620Z,12.20
2023-02-24T08:28:06.753Z,12.20
2023-02-24T08:30:40.449Z,12.20
2023-02-24T08:33:10.886Z,12.20
2023-02-24T08:35:45.130Z,12.40
2023-02-24T08:38:17.104Z,12.50
2023-02-24T08:40:51.419Z,12.40
2023-02-24T08:43:37.490Z,12.50
2023-02-24T08:46:19.587Z,12.40
2023-02-24T08:48:57.228Z,12.50
2023-02-24T08:51:31.387Z,12.60
2023-02-24T08:54:04.491Z,12.70
2023-02-24T08:56:35.051Z,12.80
2023-02-24T08:59:05.819Z,12.80
2023-02-24T09:01:38.685Z,12.90
2023-02-24T09:04:19.828Z,13.00
2023-02-24T09:06:52.551Z,13.10
2023-02-24T09:09:23.024Z,13.10
2023-02-24T09:12:02.048Z,13.10
2023-02-24T09:14:38.608Z,13.10
2023-02-24T09:17:11.359Z,13.10
2023-02-24T09:19:47.266Z,13.20
2023-02-24T09:22:31.288Z,13.40
2023-02-24T09:25:17.935Z,13.50
2023-02-24T09:27:52.558Z,13.50
2023-02-24T09:30:37.764Z,13.50
2023-02-24T09:33:17.857Z,13.50
2023-02-24T09:36:10.149Z,13.40
2023-02-24T09:39:03.148Z,13.30
2023-02-24T09:42:07.893Z,13.30
2023-02-24T09:44:44.407Z,13.30
2023-02-24T09:47:40.143Z,13.40
2023-02-24T09:50:14.244Z,13.40
2023-02-24T09:52:41.922Z,13.50
2023-02-24T09:55:26.791Z,13.60
2023-02-24T09:58:17.777Z,13.70
2023-02-24T10:01:00.838Z,13.70
2023-02-24T10:03:43.466Z,13.70
2023-02-24T10:06:35.315Z,13.80
2023-02-24T10:09:24.584Z,13.70
2023-02-24T10:12:06.867Z,13.70
2023-02-24T10:15:19.078Z,13.90
2023-02-24T10:17:56.364Z,13.80
2023-02-24T10:20:44.702Z,14.00
2023-02-24T10:23:11.901Z,14.00
2023-02-24T10:25:55.315Z,14.00
2023-02-24T10:28:37.467Z,14.10
2023-02-24T10:31:27.186Z,14.00
2023-02-24T10:34:00.983Z,13.90
2023-02-24T10:36:35.637Z,14.00
2023-02-24T10:39:17.125Z,14.00
2023-02-24T10:42:15.861Z,14.10
2023-02-24T10:45:01.979Z,14.20
2023-02-24T10:47:31.874Z,14.40
2023-02-24T10:50:01.703Z,14.50
2023-02-24T10:53:06.483Z,14.60
2023-02-24T10:55:45.904Z,14.80
2023-02-24T10:59:01.757Z,14.60
2023-02-24T11:01:40.973Z,14.50
2023-02-24T11:04:33.285Z,14.60
2023-02-24T11:07:12.966Z,14.70
2023-02-24T11:09:53.025Z,14.80
2023-02-24T11:12:43.969Z,14.90
2023-02-24T11:15:53.756Z,15.00
2023-02-24T11:18:26.702Z,15.10
2023-02-24T11:21:01.212Z,15.10
2023-02-24T11:23:30.208Z,15.20
2023-02-24T11:26:07.553Z,15.20
2023-02-24T11:28:44.805Z,15.20
2023-02-24T11:31:22.542Z,15.10
2023-02-24T11:34:06.211Z,15.10
2023-02-24T11:36:54.593Z,15.10
2023-02-24T11:39:40.666Z,15.20
2023-02-24T11:42:16.945Z,15.20
2023-02-24T11:44:47.829Z,15.20
2023-02-24T11:47:20.239Z,15.40
2023-02-24T11:50:05.008Z,15.60
2023-02-24T11:52:39.090Z,15.60
2023-02-24T11:55:27.286Z,15.60
2023-02-24T11:57:59.283Z,15.60
2023-02-24T12:00:30.905Z,15.50
2023-02-24T12:03:18.410Z,15.70
2023-02-24T12:05:52.783Z,15.80
2023-02-24T12:08:29.240Z,15.80
2023-02-24T12:11:18.507Z,16.00
2023-02-24T12:14:27.581Z,16.10
2023-02-24T12:17:03.457Z,16.00
2023-02-24T12:19:37.329Z,16.10
2023-02-24T12:22:15.653Z,16.00
2023-02-24T12:24:49.936Z,15.90
2023-02-24T12:27:43.498Z,16.00
2023-02-24T12:30:39.163Z,16.00
2023-02-24T12:33:35.678Z,16.30
2023-02-24T12:36:30.910Z,16.40
2023-02-24T12:39:42.933Z,16.50
2023-02-24T12:42:43.493Z,16.50
2023-02-24T12:45:23.816Z,16.40
2023-02-24T12:47:57.309Z,16.30
2023-02-24T12:50:30.993Z,16.40
2023-02-24T12:53:13.173Z,16.60
2023-02-24T12:55:56.996Z,16.80
2023-02-24T12:58:34.827Z,16.70
2023-02-24T13:01:13.738Z,17.00
2023-02-24T13:04:11.006Z,17.10
2023-02-24T13:07:00.048Z,17.40
2023-02-24T13:10:01.865Z,17.90
2023-02-24T13:13:06.689Z,18.30
2023-02-24T13:15:34.963Z,18.70
2023-02-24T13:18:02.534Z,19.10
2023-02-24T13:20:38.182Z,19.00
2023-02-24T13:23:21.169Z,20.00
2023-02-24T13:25:53.222Z,20.60
2023-02-24T13:28:31.620Z,19.70
2023-02-24T13:31:10.162Z,19.90
2023-02-24T13:33:45.406Z,19.40
2023-02-24T13:36:21.580Z,19.30
2023-02-24T13:38:51.045Z,19.30
2023-02-24T13:41:28.830Z,19.10
2023-02-24T13:43:58.501Z,18.50
2023-02-24T13:46:29.910Z,18.20
2023-02-24T13:49:42.435Z,17.90
2023-02-24T13:52:40.653Z,17.70
2023-02-24T13:55:14.219Z,17.70
2023-02-24T13:57:41.505Z,17.50
2023-02-24T14:00:40.721Z,17.30
2023-02-24T14:03:18.334Z,17.20
2023-02-24T14:05:45.816Z,17.00
2023-02-24T14:08:34.270Z,16.90
2023-02-24T14:11:04.030Z,16.80
2023-02-24T14:13:34.370Z,16.70
2023-02-24T14:16:06.480Z,16.70
2023-02-24T14:18:33.812Z,16.70
2023-02-24T14:21:01.042Z,16.80
2023-02-24T14:23:33.960Z,16.90
2023-02-24T14:26:05.443Z,16.90
2023-02-24T14:28:39.780Z,16.80
2023-02-24T14:31:09.180Z,16.80
2023-02-24T14:33:39.658Z,16.80
2023-02-24T14:36:18.985Z,16.90
2023-02-24T14:38:46.406Z,16.90
2023-02-24T14:41:28.026Z,16.80
2023-02-24T14:43:56.569Z,17.00
2023-02-24T14:46:24.452Z,17.40
2023-02-24T14:48:56.369Z,18.20
2023-02-24T14:51:33.951Z,19.40
2023-02-24T14:54:06.414Z,20.50
2023-02-24T14:56:35.710Z,21.70
2023-02-24T14:59:12.602Z,21.90
2023-02-24T15:01:43.417Z,21.80
2023-02-24T15:04:28.989Z,21.80
2023-02-24T15:06:56.560Z,21.20
2023-02-24T15:09:29.230Z,21.20
2023-02-24T15:11:56.721Z,21.00
2023-02-24T15:14:31.489Z,20.80
2023-02-24T15:17:03.847Z,20.50
2023-02-24T15:19:38.866Z,20.20
2023-02-24T15:22:22.810Z,19.90
2023-02-24T15:24:51.833Z,19.50
2023-02-24T15:27:20.750Z,19.30
2023-02-24T15:30:34.330Z,19.30
2023-02-24T15:33:04.452Z,19.20
2023-02-24T15:35:33.681Z,19.10
2023-02-24T15:38:02.365Z,19.00
2023-02-24T15:40:30.230Z,18.80
2023-02-24T15:42:58.741Z,18.70
2023-02-24T15:45:34.896Z,18.50
2023-02-24T15:48:17.573Z,18.30
2023-02-24T15:50:44.869Z,18.10
2023-02-24T15:53:13.201Z,17.80
2023-02-24T15:55:43.970Z,17.60
2023-02-24T15:58:17.425Z,17.50
2023-02-24T16:00:45.744Z,17.30
2023-02-24T16:03:13.270Z,17.20
2023-02-24T16:05:40.585Z,17.10
2023-02-24T16:08:13.089Z,17.00
2023-02-24T16:10:40.969Z,16.90
2023-02-24T16:13:17.345Z,16.90
2023-02-24T16:15:45.674Z,16.80
2023-02-24T16:18:22.719Z,16.70
2023-02-24T16:20:54.812Z,16.60
2023-02-24T16:23:23.577Z,16.50
2023-02-24T16:25:55.493Z,16.50
2023-02-24T16:28:23.453Z,16.40
2023-02-24T16:30:51.950Z,16.30
2023-02-24T16:33:23.927Z,16.30
2023-02-24T16:35:54.882Z,16.20
2023-02-24T16:38:26.787Z,16.10
2023-02-24T16:40:55.440Z,16.00
2023-02-24T16:43:22.747Z,16.00
2023-02-24T16:45:53.414Z,15.90
2023-02-24T16:48:24.443Z,15.90
2023-02-24T16:50:51.871Z,15.90
2023-02-24T16:53:22.659Z,15.80
2023-02-24T16:55:51.080Z,15.70
2023-02-24T16:58:19.346Z,15.70
2023-02-24T17:00:50.016Z,15.60
2023-02-24T17:03:19.760Z,15.60
2023-02-24T17:05:47.034Z,15.60
2023-02-24T17:08:17.409Z,15.50
2023-02-24T17:10:45.362Z,15.50
2023-02-24T17:13:18.589Z,15.40
2023-02-24T17:15:46.814Z,15.40
2023-02-24T17:18:14.056Z,15.40
2023-02-24T17:20:42.589Z,15.40
2023-02-24T17:23:11.488Z,15.40
2023-02-24T17:25:39.586Z,15.30
2023-02-24T17:28:07.873Z,15.30
2023-02-24T17:30:36.282Z,15.30
2023-02-24T17:33:03.717Z,15.30
2023-02-24T17:35:31.000Z,15.30
2023-02-24T17:37:58.423Z,15.30
2023-02-24T17:40:25.791Z,15.40
2023-02-24T17:42:53.124Z,15.40
2023-02-24T17:45:20.533Z,15.40
2023-02-24T17:47:47.825Z,15.40
2023-02-24T17:50:15.101Z,15.30
2023-02-24T17:52:42.546Z,15.30
2023-02-24T17:55:10.424Z,15.30
2023-02-24T17:57:39.766Z,15.30
2023-02-24T18:00:09.360Z,15.30
2023-02-24T18:02:40.336Z,15.20
2023-02-24T18:05:08.611Z,15.20
2023-02-24T18:07:36.863Z,15.20
2023-02-24T18:10:05.335Z,15.10
2023-02-24T18:12:32.714Z,15.10
2023-02-24T18:15:08.244Z,15.10
2023-02-24T18:17:36.718Z,15.10
2023-02-24T18:20:05.483Z,15.10
2023-02-24T18:22:32.754Z,15.10
2023-02-24T18:25:01.131Z,15.10
2023-02-24T18:27:28.878Z,15.10
2023-02-24T18:29:56.171Z,15.10
2023-02-24T18:32:23.569Z,15.10
2023-02-24T18:34:50.892Z,15.10
2023-02-24T18:37:18.410Z,15.00
2023-02-24T18:39:45.738Z,15.00
2023-02-24T18:42:13.016Z,15.00
2023-02-24T18:44:40.259Z,15.00
2023-02-24T18:47:09.734Z,15.00
2023-02-24T18:49:37.849Z,15.10
2023-02-24T18:52:07.655Z,15.10
2023-02-24T18:54:35.247Z,15.10
2023-02-24T18:57:02.850Z,15.20
2023-02-24T18:59:30.491Z,15.20
2023-02-24T19:01:58.065Z,15.20
2023-02-24T19:04:25.633Z,15.20
2023-02-24T19:06:52.969Z,15.20
2023-02-24T19:09:22.784Z,15.20
2023-02-24T19:11:54.305Z,15.10
2023-02-24T19:14:22.614Z,15.10
2023-02-24T19:16:50.179Z,15.00
2023-02-24T19:19:17.658Z,15.00
2023-02-24T19:21:45.689Z,14.90
2023-02-24T19:24:15.156Z,14.90
2023-02-24T19:26:44.417Z,14.80
2023-02-24T19:29:12.110Z,14.80
2023-02-24T19:31:39.699Z,14.70
2023-02-24T19:34:10.870Z,14.70
2023-02-24T19:36:38.201Z,14.60
2023-02-24T19:39:09.838Z,14.60
2023-02-24T19:41:37.902Z,14.60
2023-02-24T19:44:05.290Z,14.60
2023-02-24T19:46:34.295Z,14.60
2023-02-24T19:49:01.663Z,14.60
2023-02-24T19:51:29.483Z,14.50
2023-02-24T19:53:59.632Z,14.50
2023-02-24T19:56:29.362Z,14.50
2023-02-24T19:58:58.214Z,14.50
2023-02-24T20:01:28.103Z,14.50
2023-02-24T20:03:57.719Z,14.50
2023-02-24T20:06:31.789Z,14.40
2023-02-24T20:09:01.212Z,14.40
2023-02-24T20:11:33.401Z,14.40
2023-02-24T20:14:00.582Z,14.40
2023-02-24T20:16:32.620Z,14.30
2023-02-24T20:19:00.303Z,14.30
2023-02-24T20:21:28.208Z,14.30
2023-02-24T20:23:55.486Z,14.30
2023-02-24T20:26:23.389Z,14.20
2023-02-24T20:28:50.772Z,14.20
2023-02-24T20:31:19.599Z,14.20
2023-02-24T20:33:49.134Z,14.20
2023-02-24T20:36:22.253Z,14.20
2023-02-24T20:38:50.362Z,14.20
2023-02-24T20:41:19.362Z,14.10
2023-02-24T20:43:47.097Z,14.10
2023-02-24T20:46:17.532Z,14.10
2023-02-24T20:48:45.452Z,14.10
2023-02-24T20:51:12.872Z,14.00
2023-02-24T20:53:54.677Z,14.10
2023-02-24T20:56:25.904Z,14.00
2023-02-24T20:59:02.367Z,13.90
2023-02-24T21:01:31.824Z,13.90
2023-02-24T21:03:59.196Z,13.80
2023-02-24T21:06:27.432Z,13.80
2023-02-24T21:08:54.996Z,13.80
2023-02-24T21:11:22.651Z,13.70
2023-02-24T21:13:51.215Z,13.70
2023-02-24T21:16:20.150Z,13.60
2023-02-24T21:18:49.318Z,13.70
2023-02-24T21:21:17.633Z,13.60
2023-02-24T21:23:44.955Z,13.60
2023-02-24T21:26:13.129Z,13.60
2023-02-24T21:28:41.009Z,13.60
2023-02-24T21:31:16.355Z,13.60
2023-02-24T21:33:44.107Z,13.50
2023-02-24T21:36:14.555Z,13.40
2023-02-24T21:38:43.182Z,13.40
2023-02-24T21:41:14.908Z,13.40
2023-02-24T21:43:44.398Z,13.40
2023-02-24T21:46:13.823Z,13.50
2023-02-24T21:48:42.027Z,13.40
2023-02-24T21:51:12.176Z,13.40
2023-02-24T21:53:43.582Z,13.40
2023-02-24T21:56:18.905Z,13.40
2023-02-24T21:58:48.550Z,13.40
2023-02-24T22:01:18.308Z,13.50
2023-02-24T22:03:45.669Z,13.50
2023-02-24T22:06:15.070Z,13.50
2023-02-24T22:08:45.783Z,13.50
2023-02-24T22:11:15.833Z,13.50
2023-02-24T22:13:44.652Z,13.60
2023-02-24T22:16:21.269Z,13.60
2023-02-24T22:18:50.366Z,13.70
2023-02-24T22:21:20.351Z,13.70
2023-02-24T22:23:51.751Z,13.70
2023-02-24T22:26:21.170Z,13.70
2023-02-24T22:28:49.418Z,13.70
2023-02-24T22:31:19.374Z,13.60
2023-02-24T22:33:46.921Z,13.60
2023-02-24T22:36:16.633Z,13.60
2023-02-24T22:38:45.717Z,13.60
2023-02-24T22:41:18.543Z,13.60
2023-02-24T22:43:46.476Z,13.60
2023-02-24T22:46:21.450Z,13.50
2023-02-24T22:48:50.490Z,13.60
2023-02-24T22:51:18.855Z,13.60
2023-02-24T22:53:49.023Z,13.60
2023-02-24T22:56:22.013Z,13.60
2023-02-24T22:58:49.792Z,13.60
2023-02-24T23:01:26.720Z,13.70
2023-02-24T23:03:54.934Z,13.60
2023-02-24T23:06:26.212Z,13.60
2023-02-24T23:08:54.453Z,13.70
2023-02-24T23:11:33.895Z,13.70
2023-02-24T23:14:03.894Z,13.70
2023-02-24T23:16:34.451Z,13.80
2023-02-24T23:19:04.988Z,13.80
2023-02-24T23:21:38.281Z,13.90
2023-02-24T23:24:07.509Z,13.90
2023-02-24T23:26:51.438Z,14.00
2023-02-24T23:29:19.011Z,14.00
2023-02-24T23:31:46.601Z,14.00
2023-02-24T23:34:14.514Z,14.10
2023-02-24T23:36:44.060Z,14.10
2023-02-24T23:39:14.088Z,14.10
2023-02-24T23:41:42.062Z,14.10
2023-02-24T23:44:09.498Z,14.10
2023-02-24T23:46:37.247Z,14.10
2023-02-24T23:49:05.204Z,14.10
2023-02-24T23:51:46.954Z,14.10
2023-02-24T23:54:15.758Z,14.20
2023-02-24T23:56:43.009Z,14.10
2023-02-24T23:59:12.629Z,14.10
